sensor_id;sensor_type;location;lat;lon;timestamp;P1;durP1;ratioP1;P2;durP2;ratioP2
31382;SDS011;18014;49.228;11.102;2023-03-24T00:01:25;3.38;;;3.03;;
31382;SDS011;18014;49.228;11.102;2023-03-24T00:03:26;4.47;;;3.20;;
31382;SDS011;18014;49.228;11.102;2023-03-24T00:05:28;4.97;;;3.08;;
31382;SDS011;18014;49.228;11.102;2023-03-24T00:07:30;3.58;;;2.80;;
31382;SDS011;18014;49.228;11.102;2023-03-24T00:11:33;7.53;;;3.17;;
31382;SDS011;18014;49.228;11.102;2023-03-24T00:13:34;4.65;;;3.08;;
31382;SDS011;18014;49.228;11.102;2023-03-24T00:15:37;5.63;;;2.65;;
31382;SDS011;18014;49.228;11.102;2023-03-24T00:17:38;3.85;;;2.92;;
31382;SDS011;18014;49.228;11.102;2023-03-24T00:19:39;5.07;;;3.10;;
31382;SDS011;18014;49.228;11.102;2023-03-24T00:21:40;3.13;;;2.63;;
31382;SDS011;18014;49.228;11.102;2023-03-24T00:23:42;7.05;;;2.97;;
31382;SDS011;18014;49.228;11.102;2023-03-24T00:25:43;4.75;;;3.05;;
31382;SDS011;18014;49.228;11.102;2023-03-24T00:27:44;4.13;;;2.67;;
31382;SDS011;18014;49.228;11.102;2023-03-24T00:29:47;3.75;;;2.85;;
31382;SDS011;18014;49.228;11.102;2023-03-24T00:31:48;4.47;;;2.90;;
31382;SDS011;18014;49.228;11.102;2023-03-24T00:33:51;4.70;;;2.85;;
31382;SDS011;18014;49.228;11.102;2023-03-24T00:35:53;4.18;;;2.90;;
31382;SDS011;18014;49.228;11.102;2023-03-24T00:37:56;5.85;;;3.08;;
31382;SDS011;18014;49.228;11.102;2023-03-24T00:39:57;4.10;;;2.72;;
31382;SDS011;18014;49.228;11.102;2023-03-24T00:41:58;2.92;;;2.63;;
31382;SDS011;18014;49.228;11.102;2023-03-24T00:44:00;4.23;;;2.43;;
31382;SDS011;18014;49.228;11.102;2023-03-24T00:46:07;5.43;;;2.75;;
31382;SDS011;18014;49.228;11.102;2023-03-24T00:48:11;3.55;;;2.90;;
31382;SDS011;18014;49.228;11.102;2023-03-24T00:50:14;3.47;;;3.00;;
31382;SDS011;18014;49.228;11.102;2023-03-24T00:52:17;5.57;;;3.15;;
31382;SDS011;18014;49.228;11.102;2023-03-24T00:54:22;4.45;;;2.72;;
31382;SDS011;18014;49.228;11.102;2023-03-24T00:56:27;4.55;;;3.00;;
31382;SDS011;18014;49.228;11.102;2023-03-24T00:58:30;4.47;;;3.20;;
31382;SDS011;18014;49.228;11.102;2023-03-24T01:00:33;5.55;;;3.10;;
31382;SDS011;18014;49.228;11.102;2023-03-24T01:02:34;3.67;;;2.97;;
31382;SDS011;18014;49.228;11.102;2023-03-24T01:04:35;5.20;;;3.47;;
31382;SDS011;18014;49.228;11.102;2023-03-24T01:06:39;3.38;;;2.78;;
31382;SDS011;18014;49.228;11.102;2023-03-24T01:08:41;5.13;;;3.10;;
31382;SDS011;18014;49.228;11.102;2023-03-24T01:10:42;5.65;;;3.22;;
31382;SDS011;18014;49.228;11.102;2023-03-24T01:12:53;4.20;;;3.20;;
31382;SDS011;18014;49.228;11.102;2023-03-24T01:14:56;4.25;;;2.85;;
31382;SDS011;18014;49.228;11.102;2023-03-24T01:17:01;4.63;;;3.58;;
31382;SDS011;18014;49.228;11.102;2023-03-24T01:19:05;4.35;;;3.30;;
31382;SDS011;18014;49.228;11.102;2023-03-24T01:21:08;5.22;;;3.42;;
31382;SDS011;18014;49.228;11.102;2023-03-24T01:23:12;4.80;;;3.47;;
31382;SDS011;18014;49.228;11.102;2023-03-24T01:25:16;5.03;;;4.18;;
31382;SDS011;18014;49.228;11.102;2023-03-24T01:27:19;3.95;;;3.40;;
31382;SDS011;18014;49.228;11.102;2023-03-24T01:29:20;7.22;;;3.58;;
31382;SDS011;18014;49.228;11.102;2023-03-24T01:31:21;7.30;;;3.75;;
31382;SDS011;18014;49.228;11.102;2023-03-24T01:33:22;5.70;;;3.33;;
31382;SDS011;18014;49.228;11.102;2023-03-24T01:35:23;4.20;;;3.60;;
31382;SDS011;18014;49.228;11.102;2023-03-24T01:37:25;4.85;;;3.33;;
31382;SDS011;18014;49.228;11.102;2023-03-24T01:39:26;7.30;;;3.97;;
31382;SDS011;18014;49.228;11.102;2023-03-24T01:41:29;5.28;;;3.83;;
31382;SDS011;18014;49.228;11.102;2023-03-24T01:43:36;5.97;;;3.67;;
31382;SDS011;18014;49.228;11.102;2023-03-24T01:47:38;5.43;;;3.92;;
31382;SDS011;18014;49.228;11.102;2023-03-24T01:49:41;6.75;;;4.32;;
31382;SDS011;18014;49.228;11.102;2023-03-24T01:51:52;7.30;;;4.55;;
31382;SDS011;18014;49.228;11.102;2023-03-24T01:53:59;5.10;;;4.18;;
31382;SDS011;18014;49.228;11.102;2023-03-24T01:56:05;5.18;;;4.53;;
31382;SDS011;18014;49.228;11.102;2023-03-24T01:58:07;5.20;;;4.60;;
31382;SDS011;18014;49.228;11.102;2023-03-24T02:00:09;9.98;;;5.03;;
31382;SDS011;18014;49.228;11.102;2023-03-24T02:02:16;5.43;;;4.60;;
31382;SDS011;18014;49.228;11.102;2023-03-24T02:04:17;8.10;;;4.88;;
31382;SDS011;18014;49.228;11.102;2023-03-24T02:06:18;6.13;;;4.80;;
31382;SDS011;18014;49.228;11.102;2023-03-24T02:08:26;5.53;;;4.53;;
31382;SDS011;18014;49.228;11.102;2023-03-24T02:10:47;6.22;;;4.85;;
31382;SDS011;18014;49.228;11.102;2023-03-24T02:12:49;6.80;;;5.03;;
31382;SDS011;18014;49.228;11.102;2023-03-24T02:14:50;6.82;;;5.30;;
31382;SDS011;18014;49.228;11.102;2023-03-24T02:23:45;5.28;;;4.78;;
31382;SDS011;18014;49.228;11.102;2023-03-24T02:48:33;5.75;;;4.45;;
31382;SDS011;18014;49.228;11.102;2023-03-24T02:50:57;6.00;;;4.15;;
31382;SDS011;18014;49.228;11.102;2023-03-24T02:53:16;5.70;;;4.85;;
31382;SDS011;18014;49.228;11.102;2023-03-24T02:57:55;5.68;;;4.30;;
31382;SDS011;18014;49.228;11.102;2023-03-24T03:03:00;8.00;;;5.03;;
31382;SDS011;18014;49.228;11.102;2023-03-24T03:05:09;6.72;;;4.45;;
31382;SDS011;18014;49.228;11.102;2023-03-24T03:07:20;6.82;;;5.22;;
31382;SDS011;18014;49.228;11.102;2023-03-24T03:09:25;5.47;;;4.97;;
31382;SDS011;18014;49.228;11.102;2023-03-24T03:11:27;7.72;;;5.22;;
31382;SDS011;18014;49.228;11.102;2023-03-24T03:13:38;5.72;;;4.65;;
31382;SDS011;18014;49.228;11.102;2023-03-24T03:15:48;6.20;;;4.78;;
31382;SDS011;18014;49.228;11.102;2023-03-24T03:18:02;6.95;;;4.53;;
31382;SDS011;18014;49.228;11.102;2023-03-24T03:20:08;5.03;;;4.50;;
31382;SDS011;18014;49.228;11.102;2023-03-24T03:22:18;5.88;;;4.25;;
31382;SDS011;18014;49.228;11.102;2023-03-24T03:24:27;6.20;;;4.40;;
31382;SDS011;18014;49.228;11.102;2023-03-24T03:26:31;5.35;;;4.50;;
31382;SDS011;18014;49.228;11.102;2023-03-24T03:28:34;6.50;;;4.72;;
31382;SDS011;18014;49.228;11.102;2023-03-24T03:30:38;6.13;;;4.20;;
31382;SDS011;18014;49.228;11.102;2023-03-24T03:32:53;6.60;;;4.70;;
31382;SDS011;18014;49.228;11.102;2023-03-24T03:37:58;7.65;;;4.68;;
31382;SDS011;18014;49.228;11.102;2023-03-24T03:40:11;4.75;;;4.25;;
31382;SDS011;18014;49.228;11.102;2023-03-24T03:42:16;6.90;;;4.53;;
31382;SDS011;18014;49.228;11.102;2023-03-24T03:44:18;5.22;;;3.42;;
31382;SDS011;18014;49.228;11.102;2023-03-24T03:46:19;5.38;;;4.15;;
31382;SDS011;18014;49.228;11.102;2023-03-24T03:48:20;4.10;;;3.70;;
31382;SDS011;18014;49.228;11.102;2023-03-24T03:50:25;4.43;;;4.03;;
31382;SDS011;18014;49.228;11.102;2023-03-24T03:52:26;5.25;;;3.83;;
31382;SDS011;18014;49.228;11.102;2023-03-24T03:54:27;5.85;;;3.97;;
31382;SDS011;18014;49.228;11.102;2023-03-24T03:56:31;4.53;;;3.83;;
31382;SDS011;18014;49.228;11.102;2023-03-24T03:58:34;6.07;;;3.90;;
31382;SDS011;18014;49.228;11.102;2023-03-24T04:00:36;6.35;;;4.13;;
31382;SDS011;18014;49.228;11.102;2023-03-24T04:02:44;4.20;;;3.60;;
31382;SDS011;18014;49.228;11.102;2023-03-24T04:07:30;5.20;;;3.55;;
31382;SDS011;18014;49.228;11.102;2023-03-24T04:16:52;6.20;;;3.92;;
31382;SDS011;18014;49.228;11.102;2023-03-24T04:23:46;4.70;;;4.10;;
31382;SDS011;18014;49.228;11.102;2023-03-24T04:32:45;4.05;;;3.65;;
31382;SDS011;18014;49.228;11.102;2023-03-24T04:34:57;5.88;;;3.58;;
31382;SDS011;18014;49.228;11.102;2023-03-24T04:37:07;4.45;;;3.70;;
31382;SDS011;18014;49.228;11.102;2023-03-24T04:39:14;5.13;;;4.22;;
31382;SDS011;18014;49.228;11.102;2023-03-24T04:41:18;4.70;;;3.85;;
31382;SDS011;18014;49.228;11.102;2023-03-24T04:45:24;4.45;;;3.97;;
31382;SDS011;18014;49.228;11.102;2023-03-24T04:47:25;4.47;;;3.45;;
31382;SDS011;18014;49.228;11.102;2023-03-24T04:49:30;4.57;;;3.90;;
31382;SDS011;18014;49.228;11.102;2023-03-24T04:51:35;4.55;;;3.63;;
31382;SDS011;18014;49.228;11.102;2023-03-24T04:53:36;4.63;;;4.05;;
31382;SDS011;18014;49.228;11.102;2023-03-24T04:58:03;4.15;;;3.47;;
31382;SDS011;18014;49.228;11.102;2023-03-24T05:00:05;6.22;;;3.90;;
31382;SDS011;18014;49.228;11.102;2023-03-24T05:02:07;4.05;;;3.65;;
31382;SDS011;18014;49.228;11.102;2023-03-24T05:04:08;6.15;;;4.30;;
31382;SDS011;18014;49.228;11.102;2023-03-24T05:06:09;5.20;;;3.65;;
31382;SDS011;18014;49.228;11.102;2023-03-24T05:08:11;6.25;;;4.35;;
31382;SDS011;18014;49.228;11.102;2023-03-24T05:10:13;3.58;;;3.28;;
31382;SDS011;18014;49.228;11.102;2023-03-24T05:12:15;4.25;;;3.85;;
31382;SDS011;18014;49.228;11.102;2023-03-24T05:14:16;4.75;;;3.33;;
31382;SDS011;18014;49.228;11.102;2023-03-24T05:16:17;5.00;;;3.30;;
31382;SDS011;18014;49.228;11.102;2023-03-24T05:18:19;6.45;;;3.00;;
31382;SDS011;18014;49.228;11.102;2023-03-24T05:20:20;3.75;;;3.15;;
31382;SDS011;18014;49.228;11.102;2023-03-24T05:22:22;4.38;;;3.03;;
31382;SDS011;18014;49.228;11.102;2023-03-24T05:24:23;5.50;;;3.10;;
31382;SDS011;18014;49.228;11.102;2023-03-24T05:26:24;3.78;;;2.92;;
31382;SDS011;18014;49.228;11.102;2023-03-24T05:28:27;5.18;;;2.97;;
31382;SDS011;18014;49.228;11.102;2023-03-24T05:30:29;5.38;;;2.95;;
31382;SDS011;18014;49.228;11.102;2023-03-24T05:32:30;4.90;;;3.10;;
31382;SDS011;18014;49.228;11.102;2023-03-24T05:34:31;3.78;;;2.85;;
31382;SDS011;18014;49.228;11.102;2023-03-24T05:36:32;5.63;;;3.17;;
31382;SDS011;18014;49.228;11.102;2023-03-24T05:38:33;4.30;;;3.13;;
31382;SDS011;18014;49.228;11.102;2023-03-24T05:40:35;6.57;;;3.33;;
31382;SDS011;18014;49.228;11.102;2023-03-24T05:42:36;3.28;;;2.60;;
31382;SDS011;18014;49.228;11.102;2023-03-24T05:44:37;3.45;;;2.90;;
31382;SDS011;18014;49.228;11.102;2023-03-24T05:46:38;3.22;;;2.60;;
31382;SDS011;18014;49.228;11.102;2023-03-24T05:48:40;3.07;;;2.60;;
31382;SDS011;18014;49.228;11.102;2023-03-24T05:50:41;3.92;;;2.90;;
31382;SDS011;18014;49.228;11.102;2023-03-24T05:52:42;4.10;;;2.90;;
31382;SDS011;18014;49.228;11.102;2023-03-24T05:54:43;3.75;;;2.63;;
31382;SDS011;18014;49.228;11.102;2023-03-24T05:56:44;3.92;;;2.53;;
31382;SDS011;18014;49.228;11.102;2023-03-24T05:58:45;3.15;;;2.40;;
31382;SDS011;18014;49.228;11.102;2023-03-24T06:00:46;3.28;;;2.78;;
31382;SDS011;18014;49.228;11.102;2023-03-24T06:02:48;3.47;;;2.80;;
31382;SDS011;18014;49.228;11.102;2023-03-24T06:04:50;3.40;;;2.85;;
31382;SDS011;18014;49.228;11.102;2023-03-24T06:06:52;5.05;;;3.05;;
31382;SDS011;18014;49.228;11.102;2023-03-24T06:08:54;4.40;;;3.00;;
31382;SDS011;18014;49.228;11.102;2023-03-24T06:10:57;4.57;;;3.33;;
31382;SDS011;18014;49.228;11.102;2023-03-24T06:13:01;5.97;;;3.05;;
31382;SDS011;18014;49.228;11.102;2023-03-24T06:15:02;3.67;;;3.20;;
31382;SDS011;18014;49.228;11.102;2023-03-24T06:17:04;4.75;;;3.30;;
31382;SDS011;18014;49.228;11.102;2023-03-24T06:19:06;3.45;;;3.15;;
31382;SDS011;18014;49.228;11.102;2023-03-24T06:21:07;3.70;;;3.40;;
31382;SDS011;18014;49.228;11.102;2023-03-24T06:23:08;4.25;;;3.40;;
31382;SDS011;18014;49.228;11.102;2023-03-24T06:25:10;4.93;;;3.33;;
31382;SDS011;18014;49.228;11.102;2023-03-24T06:27:14;4.57;;;3.50;;
31382;SDS011;18014;49.228;11.102;2023-03-24T06:29:17;5.15;;;3.20;;
31382;SDS011;18014;49.228;11.102;2023-03-24T06:31:19;4.53;;;3.65;;
31382;SDS011;18014;49.228;11.102;2023-03-24T06:33:21;5.95;;;3.47;;
31382;SDS011;18014;49.228;11.102;2023-03-24T06:35:24;4.88;;;3.45;;
31382;SDS011;18014;49.228;11.102;2023-03-24T06:37:25;4.38;;;2.97;;
31382;SDS011;18014;49.228;11.102;2023-03-24T06:39:26;4.30;;;3.13;;
31382;SDS011;18014;49.228;11.102;2023-03-24T06:41:27;3.47;;;3.17;;
31382;SDS011;18014;49.228;11.102;2023-03-24T06:43:28;3.78;;;3.22;;
31382;SDS011;18014;49.228;11.102;2023-03-24T06:45:30;4.63;;;3.80;;
31382;SDS011;18014;49.228;11.102;2023-03-24T06:47:31;6.40;;;3.75;;
31382;SDS011;18014;49.228;11.102;2023-03-24T06:49:32;6.13;;;3.63;;
31382;SDS011;18014;49.228;11.102;2023-03-24T06:51:36;3.80;;;3.40;;
31382;SDS011;18014;49.228;11.102;2023-03-24T06:53:37;4.88;;;3.38;;
31382;SDS011;18014;49.228;11.102;2023-03-24T06:55:40;4.43;;;3.45;;
31382;SDS011;18014;49.228;11.102;2023-03-24T06:57:41;4.40;;;3.50;;
31382;SDS011;18014;49.228;11.102;2023-03-24T06:59:42;4.05;;;3.47;;
31382;SDS011;18014;49.228;11.102;2023-03-24T07:01:43;4.50;;;3.08;;
31382;SDS011;18014;49.228;11.102;2023-03-24T07:03:44;3.60;;;3.30;;
31382;SDS011;18014;49.228;11.102;2023-03-24T07:05:45;4.35;;;3.03;;
31382;SDS011;18014;49.228;11.102;2023-03-24T07:07:46;4.40;;;3.25;;
31382;SDS011;18014;49.228;11.102;2023-03-24T07:09:47;5.85;;;3.30;;
31382;SDS011;18014;49.228;11.102;2023-03-24T07:11:49;5.13;;;3.67;;
31382;SDS011;18014;49.228;11.102;2023-03-24T07:13:50;4.40;;;3.15;;
31382;SDS011;18014;49.228;11.102;2023-03-24T07:15:51;4.25;;;3.17;;
31382;SDS011;18014;49.228;11.102;2023-03-24T07:17:52;5.10;;;3.40;;
31382;SDS011;18014;49.228;11.102;2023-03-24T07:19:53;4.35;;;3.20;;
31382;SDS011;18014;49.228;11.102;2023-03-24T07:21:54;5.10;;;3.60;;
31382;SDS011;18014;49.228;11.102;2023-03-24T07:23:55;8.02;;;4.05;;
31382;SDS011;18014;49.228;11.102;2023-03-24T07:25:56;6.32;;;4.18;;
31382;SDS011;18014;49.228;11.102;2023-03-24T07:27:57;5.20;;;3.53;;
31382;SDS011;18014;49.228;11.102;2023-03-24T07:29:59;4.78;;;3.65;;
31382;SDS011;18014;49.228;11.102;2023-03-24T07:32:00;4.07;;;3.35;;
31382;SDS011;18014;49.228;11.102;2023-03-24T07:34:03;4.33;;;3.43;;
31382;SDS011;18014;49.228;11.102;2023-03-24T07:36:05;3.92;;;3.58;;
31382;SDS011;18014;49.228;11.102;2023-03-24T07:38:07;4.78;;;4.30;;
31382;SDS011;18014;49.228;11.102;2023-03-24T07:40:09;5.18;;;3.63;;
31382;SDS011;18014;49.228;11.102;2023-03-24T07:42:11;3.20;;;2.78;;
31382;SDS011;18014;49.228;11.102;2023-03-24T07:44:12;3.20;;;2.90;;
31382;SDS011;18014;49.228;11.102;2023-03-24T07:46:14;2.72;;;2.53;;
31382;SDS011;18014;49.228;11.102;2023-03-24T07:48:15;3.97;;;3.05;;
31382;SDS011;18014;49.228;11.102;2023-03-24T07:50:16;4.63;;;2.70;;
31382;SDS011;18014;49.228;11.102;2023-03-24T07:52:17;3.25;;;2.60;;
31382;SDS011;18014;49.228;11.102;2023-03-24T07:54:18;2.47;;;2.28;;
31382;SDS011;18014;49.228;11.102;2023-03-24T07:56:20;2.90;;;2.63;;
31382;SDS011;18014;49.228;11.102;2023-03-24T07:58:21;4.28;;;3.10;;
31382;SDS011;18014;49.228;11.102;2023-03-24T08:00:22;4.43;;;2.80;;
31382;SDS011;18014;49.228;11.102;2023-03-24T08:02:24;3.92;;;2.95;;
31382;SDS011;18014;49.228;11.102;2023-03-24T08:04:24;3.10;;;2.80;;
31382;SDS011;18014;49.228;11.102;2023-03-24T08:06:28;4.53;;;2.85;;
31382;SDS011;18014;49.228;11.102;2023-03-24T08:08:30;2.63;;;2.42;;
31382;SDS011;18014;49.228;11.102;2023-03-24T08:10:31;4.65;;;3.08;;
31382;SDS011;18014;49.228;11.102;2023-03-24T08:12:32;4.18;;;2.95;;
31382;SDS011;18014;49.228;11.102;2023-03-24T08:14:33;3.13;;;2.70;;
31382;SDS011;18014;49.228;11.102;2023-03-24T08:16:34;3.85;;;3.28;;
31382;SDS011;18014;49.228;11.102;2023-03-24T08:18:37;3.33;;;3.00;;
31382;SDS011;18014;49.228;11.102;2023-03-24T08:20:38;3.45;;;3.15;;
31382;SDS011;18014;49.228;11.102;2023-03-24T08:22:40;3.10;;;2.60;;
31382;SDS011;18014;49.228;11.102;2023-03-24T08:24:42;4.57;;;3.25;;
31382;SDS011;18014;49.228;11.102;2023-03-24T08:26:43;4.28;;;3.00;;
31382;SDS011;18014;49.228;11.102;2023-03-24T08:28:45;4.45;;;3.08;;
31382;SDS011;18014;49.228;11.102;2023-03-24T08:30:46;3.88;;;2.92;;
31382;SDS011;18014;49.228;11.102;2023-03-24T08:32:49;3.42;;;2.65;;
31382;SDS011;18014;49.228;11.102;2023-03-24T08:34:51;3.72;;;2.72;;
31382;SDS011;18014;49.228;11.102;2023-03-24T08:36:53;4.07;;;2.72;;
31382;SDS011;18014;49.228;11.102;2023-03-24T08:38:54;3.53;;;2.60;;
31382;SDS011;18014;49.228;11.102;2023-03-24T08:40:56;2.60;;;2.33;;
31382;SDS011;18014;49.228;11.102;2023-03-24T08:43:06;5.70;;;2.90;;
31382;SDS011;18014;49.228;11.102;2023-03-24T08:45:11;2.88;;;2.53;;
31382;SDS011;18014;49.228;11.102;2023-03-24T08:47:12;3.65;;;3.28;;
31382;SDS011;18014;49.228;11.102;2023-03-24T08:49:13;4.22;;;2.65;;
31382;SDS011;18014;49.228;11.102;2023-03-24T08:51:16;8.43;;;3.37;;
31382;SDS011;18014;49.228;11.102;2023-03-24T08:53:17;5.63;;;3.40;;
31382;SDS011;18014;49.228;11.102;2023-03-24T08:55:18;6.88;;;3.60;;
31382;SDS011;18014;49.228;11.102;2023-03-24T08:57:19;6.03;;;3.08;;
31382;SDS011;18014;49.228;11.102;2023-03-24T08:59:21;4.78;;;3.10;;
31382;SDS011;18014;49.228;11.102;2023-03-24T09:01:22;3.85;;;3.20;;
31382;SDS011;18014;49.228;11.102;2023-03-24T09:03:23;4.00;;;3.60;;
31382;SDS011;18014;49.228;11.102;2023-03-24T09:05:25;4.75;;;3.75;;
31382;SDS011;18014;49.228;11.102;2023-03-24T09:07:26;6.28;;;4.28;;
31382;SDS011;18014;49.228;11.102;2023-03-24T09:09:27;5.97;;;4.13;;
31382;SDS011;18014;49.228;11.102;2023-03-24T09:11:28;7.25;;;4.50;;
31382;SDS011;18014;49.228;11.102;2023-03-24T09:13:29;6.13;;;4.38;;
31382;SDS011;18014;49.228;11.102;2023-03-24T09:15:30;5.55;;;4.13;;
31382;SDS011;18014;49.228;11.102;2023-03-24T09:17:32;5.35;;;4.68;;
31382;SDS011;18014;49.228;11.102;2023-03-24T09:19:34;4.47;;;3.88;;
31382;SDS011;18014;49.228;11.102;2023-03-24T09:21:35;5.18;;;4.70;;
31382;SDS011;18014;49.228;11.102;2023-03-24T09:23:37;5.70;;;4.93;;
31382;SDS011;18014;49.228;11.102;2023-03-24T09:25:38;6.97;;;4.30;;
31382;SDS011;18014;49.228;11.102;2023-03-24T09:27:39;5.15;;;4.22;;
31382;SDS011;18014;49.228;11.102;2023-03-24T09:29:41;4.43;;;3.90;;
31382;SDS011;18014;49.228;11.102;2023-03-24T09:31:42;6.38;;;4.60;;
31382;SDS011;18014;49.228;11.102;2023-03-24T09:33:43;5.60;;;4.70;;
31382;SDS011;18014;49.228;11.102;2023-03-24T09:35:44;7.28;;;5.03;;
31382;SDS011;18014;49.228;11.102;2023-03-24T09:37:52;4.88;;;4.38;;
31382;SDS011;18014;49.228;11.102;2023-03-24T09:39:54;5.10;;;4.00;;
31382;SDS011;18014;49.228;11.102;2023-03-24T09:41:55;4.13;;;3.63;;
31382;SDS011;18014;49.228;11.102;2023-03-24T09:44:03;6.25;;;3.80;;
31382;SDS011;18014;49.228;11.102;2023-03-24T09:46:19;6.13;;;4.03;;
31382;SDS011;18014;49.228;11.102;2023-03-24T09:51:04;5.60;;;4.28;;
31382;SDS011;18014;49.228;11.102;2023-03-24T09:53:33;4.78;;;4.28;;
31382;SDS011;18014;49.228;11.102;2023-03-24T09:55:37;7.75;;;4.10;;
31382;SDS011;18014;49.228;11.102;2023-03-24T09:57:40;4.65;;;3.97;;
31382;SDS011;18014;49.228;11.102;2023-03-24T09:59:44;4.82;;;3.70;;
31382;SDS011;18014;49.228;11.102;2023-03-24T10:01:45;5.88;;;3.80;;
31382;SDS011;18014;49.228;11.102;2023-03-24T10:03:46;5.75;;;3.75;;
31382;SDS011;18014;49.228;11.102;2023-03-24T10:08:18;7.85;;;4.03;;
31382;SDS011;18014;49.228;11.102;2023-03-24T10:10:35;5.70;;;3.40;;
31382;SDS011;18014;49.228;11.102;2023-03-24T10:12:45;3.50;;;3.10;;
31382;SDS011;18014;49.228;11.102;2023-03-24T10:22:05;3.60;;;3.20;;
31382;SDS011;18014;49.228;11.102;2023-03-24T10:24:44;3.95;;;3.25;;
31382;SDS011;18014;49.228;11.102;2023-03-24T10:27:01;5.07;;;3.55;;
31382;SDS011;18014;49.228;11.102;2023-03-24T10:29:31;3.28;;;2.97;;
31382;SDS011;18014;49.228;11.102;2023-03-24T10:31:35;4.47;;;2.83;;
31382;SDS011;18014;49.228;11.102;2023-03-24T10:33:41;2.47;;;2.03;;
31382;SDS011;18014;49.228;11.102;2023-03-24T10:37:57;2.58;;;2.05;;
31382;SDS011;18014;49.228;11.102;2023-03-24T10:40:00;6.30;;;2.40;;
31382;SDS011;18014;49.228;11.102;2023-03-24T10:42:00;2.38;;;2.13;;
31382;SDS011;18014;49.228;11.102;2023-03-24T10:44:02;2.22;;;1.80;;
31382;SDS011;18014;49.228;11.102;2023-03-24T10:46:03;2.83;;;2.30;;
31382;SDS011;18014;49.228;11.102;2023-03-24T10:48:04;2.85;;;2.08;;
31382;SDS011;18014;49.228;11.102;2023-03-24T10:50:08;3.67;;;2.38;;
31382;SDS011;18014;49.228;11.102;2023-03-24T10:52:09;4.78;;;2.70;;
31382;SDS011;18014;49.228;11.102;2023-03-24T10:54:11;3.60;;;2.50;;
31382;SDS011;18014;49.228;11.102;2023-03-24T10:56:36;3.63;;;2.33;;
31382;SDS011;18014;49.228;11.102;2023-03-24T10:58:43;2.83;;;2.55;;
31382;SDS011;18014;49.228;11.102;2023-03-24T11:00:45;5.00;;;2.45;;
31382;SDS011;18014;49.228;11.102;2023-03-24T11:02:52;2.85;;;2.58;;
31382;SDS011;18014;49.228;11.102;2023-03-24T11:05:00;3.67;;;2.90;;
31382;SDS011;18014;49.228;11.102;2023-03-24T11:07:17;3.28;;;2.97;;
31382;SDS011;18014;49.228;11.102;2023-03-24T11:09:21;4.63;;;3.00;;
31382;SDS011;18014;49.228;11.102;2023-03-24T11:13:32;4.20;;;3.80;;
31382;SDS011;18014;49.228;11.102;2023-03-24T11:15:34;5.38;;;4.00;;
31382;SDS011;18014;49.228;11.102;2023-03-24T11:17:36;3.10;;;2.78;;
31382;SDS011;18014;49.228;11.102;2023-03-24T11:19:37;4.75;;;3.70;;
31382;SDS011;18014;49.228;11.102;2023-03-24T11:21:38;5.05;;;4.38;;
31382;SDS011;18014;49.228;11.102;2023-03-24T11:23:42;4.93;;;4.45;;
31382;SDS011;18014;49.228;11.102;2023-03-24T11:25:46;5.45;;;4.78;;
31382;SDS011;18014;49.228;11.102;2023-03-24T11:27:54;5.47;;;4.35;;
31382;SDS011;18014;49.228;11.102;2023-03-24T11:29:59;5.68;;;4.63;;
31382;SDS011;18014;49.228;11.102;2023-03-24T11:32:01;5.47;;;4.47;;
31382;SDS011;18014;49.228;11.102;2023-03-24T11:34:14;6.15;;;5.55;;
31382;SDS011;18014;49.228;11.102;2023-03-24T11:38:32;5.55;;;4.97;;
31382;SDS011;18014;49.228;11.102;2023-03-24T11:40:34;5.30;;;4.80;;
31382;SDS011;18014;49.228;11.102;2023-03-24T11:42:39;7.10;;;5.13;;
31382;SDS011;18014;49.228;11.102;2023-03-24T11:46:57;5.22;;;4.50;;
31382;SDS011;18014;49.228;11.102;2023-03-24T11:49:05;5.28;;;4.78;;
31382;SDS011;18014;49.228;11.102;2023-03-24T11:51:09;4.80;;;4.25;;
31382;SDS011;18014;49.228;11.102;2023-03-24T11:54:01;5.40;;;4.60;;
31382;SDS011;18014;49.228;11.102;2023-03-24T12:00:26;4.82;;;3.97;;
31382;SDS011;18014;49.228;11.102;2023-03-24T12:02:38;5.10;;;4.00;;
31382;SDS011;18014;49.228;11.102;2023-03-24T12:05:16;4.95;;;4.40;;
31382;SDS011;18014;49.228;11.102;2023-03-24T12:07:28;4.80;;;4.00;;
31382;SDS011;18014;49.228;11.102;2023-03-24T12:09:35;6.30;;;4.47;;
31382;SDS011;18014;49.228;11.102;2023-03-24T12:14:18;4.07;;;3.75;;
31382;SDS011;18014;49.228;11.102;2023-03-24T12:18:38;4.32;;;3.92;;
31382;SDS011;18014;49.228;11.102;2023-03-24T12:39:31;3.97;;;2.70;;
31382;SDS011;18014;49.228;11.102;2023-03-24T12:41:48;3.10;;;2.80;;
31382;SDS011;18014;49.228;11.102;2023-03-24T12:44:21;3.88;;;2.80;;
31382;SDS011;18014;49.228;11.102;2023-03-24T12:46:58;3.22;;;2.22;;
31382;SDS011;18014;49.228;11.102;2023-03-24T12:49:11;3.08;;;2.75;;
31382;SDS011;18014;49.228;11.102;2023-03-24T12:52:19;2.72;;;2.50;;
31382;SDS011;18014;49.228;11.102;2023-03-24T12:56:30;2.92;;;2.55;;
31382;SDS011;18014;49.228;11.102;2023-03-24T12:58:41;3.55;;;2.30;;
31382;SDS011;18014;49.228;11.102;2023-03-24T13:03:13;2.10;;;1.70;;
31382;SDS011;18014;49.228;11.102;2023-03-24T13:05:29;4.28;;;1.88;;
31382;SDS011;18014;49.228;11.102;2023-03-24T13:07:35;2.92;;;1.80;;
31382;SDS011;18014;49.228;11.102;2023-03-24T13:11:56;1.50;;;1.40;;
31382;SDS011;18014;49.228;11.102;2023-03-24T13:14:00;1.70;;;1.55;;
31382;SDS011;18014;49.228;11.102;2023-03-24T13:16:07;1.90;;;1.80;;
31382;SDS011;18014;49.228;11.102;2023-03-24T13:20:45;2.97;;;1.98;;
31382;SDS011;18014;49.228;11.102;2023-03-24T13:22:50;2.83;;;1.55;;
31382;SDS011;18014;49.228;11.102;2023-03-24T13:24:52;1.60;;;1.50;;
31382;SDS011;18014;49.228;11.102;2023-03-24T13:33:46;2.22;;;1.55;;
31382;SDS011;18014;49.228;11.102;2023-03-24T13:38:17;2.35;;;1.30;;
31382;SDS011;18014;49.228;11.102;2023-03-24T13:40:25;1.17;;;1.02;;
31382;SDS011;18014;49.228;11.102;2023-03-24T13:44:37;2.35;;;1.10;;
31382;SDS011;18014;49.228;11.102;2023-03-24T13:46:40;1.75;;;1.10;;
31382;SDS011;18014;49.228;11.102;2023-03-24T13:48:42;1.30;;;0.98;;
31382;SDS011;18014;49.228;11.102;2023-03-24T13:50:49;1.92;;;1.00;;
31382;SDS011;18014;49.228;11.102;2023-03-24T13:53:03;0.90;;;0.88;;
31382;SDS011;18014;49.228;11.102;2023-03-24T13:55:18;0.73;;;0.65;;
31382;SDS011;18014;49.228;11.102;2023-03-24T13:57:22;1.00;;;0.65;;
31382;SDS011;18014;49.228;11.102;2023-03-24T14:01:34;1.35;;;0.85;;
31382;SDS011;18014;49.228;11.102;2023-03-24T14:03:40;2.28;;;0.70;;
31382;SDS011;18014;49.228;11.102;2023-03-24T14:09:59;1.13;;;0.77;;
31382;SDS011;18014;49.228;11.102;2023-03-24T14:12:16;3.60;;;1.05;;
31382;SDS011;18014;49.228;11.102;2023-03-24T14:14:21;1.45;;;0.77;;
31382;SDS011;18014;49.228;11.102;2023-03-24T14:20:41;2.83;;;0.82;;
31382;SDS011;18014;49.228;11.102;2023-03-24T14:22:56;0.90;;;0.85;;
31382;SDS011;18014;49.228;11.102;2023-03-24T14:25:01;0.80;;;0.80;;
31382;SDS011;18014;49.228;11.102;2023-03-24T14:27:21;1.23;;;0.80;;
31382;SDS011;18014;49.228;11.102;2023-03-24T14:29:47;0.68;;;0.68;;
31382;SDS011;18014;49.228;11.102;2023-03-24T14:31:49;0.93;;;0.80;;
31382;SDS011;18014;49.228;11.102;2023-03-24T14:33:59;1.38;;;1.00;;
31382;SDS011;18014;49.228;11.102;2023-03-24T14:36:14;2.17;;;1.58;;
31382;SDS011;18014;49.228;11.102;2023-03-24T14:38:40;2.03;;;1.30;;
31382;SDS011;18014;49.228;11.102;2023-03-24T14:40:44;0.73;;;0.65;;
31382;SDS011;18014;49.228;11.102;2023-03-24T14:44:52;0.90;;;0.90;;
31382;SDS011;18014;49.228;11.102;2023-03-24T14:46:56;0.98;;;0.98;;
31382;SDS011;18014;49.228;11.102;2023-03-24T14:49:05;1.77;;;0.93;;
31382;SDS011;18014;49.228;11.102;2023-03-24T14:51:17;0.85;;;0.82;;